sensor_id;sensor_type;location;lat;lon;timestamp;P1;durP1;ratioP1;P2;durP2;ratioP2
23490;SDS011;14683;50.038;8.078;2024-03-06T02:53:05;3.95;;;2.90;;
23490;SDS011;14683;50.038;8.078;2024-03-06T02:56:06;4.55;;;3.10;;
23490;SDS011;14683;50.038;8.078;2024-03-06T02:59:07;3.47;;;3.10;;
23490;SDS011;14683;50.038;8.078;2024-03-06T03:02:08;3.50;;;3.20;;
23490;SDS011;14683;50.038;8.078;2024-03-06T03:05:09;4.30;;;2.88;;
23490;SDS011;14683;50.038;8.078;2024-03-06T03:08:10;4.53;;;2.80;;
23490;SDS011;14683;50.038;8.078;2024-03-06T03:11:12;3.65;;;2.80;;
23490;SDS011;14683;50.038;8.078;2024-03-06T03:14:13;3.45;;;3.15;;
23490;SDS011;14683;50.038;8.078;2024-03-06T03:17:14;5.07;;;3.20;;
23490;SDS011;14683;50.038;8.078;2024-03-06T03:20:16;3.08;;;2.60;;
23490;SDS011;14683;50.038;8.078;2024-03-06T03:23:18;3.97;;;3.00;;
23490;SDS011;14683;50.038;8.078;2024-03-06T03:26:22;5.70;;;3.00;;
23490;SDS011;14683;50.038;8.078;2024-03-06T03:29:23;4.90;;;2.90;;
23490;SDS011;14683;50.038;8.078;2024-03-06T03:32:24;2.70;;;2.50;;
23490;SDS011;14683;50.038;8.078;2024-03-06T03:35:26;4.43;;;2.80;;
23490;SDS011;14683;50.038;8.078;2024-03-06T03:38:27;5.22;;;2.95;;
23490;SDS011;14683;50.038;8.078;2024-03-06T03:41:28;3.90;;;3.22;;
23490;SDS011;14683;50.038;8.078;2024-03-06T03:44:29;3.42;;;3.10;;
23490;SDS011;14683;50.038;8.078;2024-03-06T03:47:30;3.45;;;2.67;;
23490;SDS011;14683;50.038;8.078;2024-03-06T03:50:31;4.22;;;3.08;;
23490;SDS011;14683;50.038;8.078;2024-03-06T03:53:33;3.15;;;2.85;;
23490;SDS011;14683;50.038;8.078;2024-03-06T03:56:34;4.07;;;2.80;;
23490;SDS011;14683;50.038;8.078;2024-03-06T03:59:35;3.38;;;2.70;;
23490;SDS011;14683;50.038;8.078;2024-03-06T04:02:37;4.07;;;2.80;;
23490;SDS011;14683;50.038;8.078;2024-03-06T04:05:39;3.03;;;2.83;;
23490;SDS011;14683;50.038;8.078;2024-03-06T04:08:40;5.38;;;3.10;;
23490;SDS011;14683;50.038;8.078;2024-03-06T04:11:42;4.53;;;2.97;;
23490;SDS011;14683;50.038;8.078;2024-03-06T04:14:43;4.13;;;2.85;;
23490;SDS011;14683;50.038;8.078;2024-03-06T04:17:44;2.60;;;2.40;;
23490;SDS011;14683;50.038;8.078;2024-03-06T04:20:45;3.35;;;2.60;;
23490;SDS011;14683;50.038;8.078;2024-03-06T04:23:46;3.78;;;2.88;;
23490;SDS011;14683;50.038;8.078;2024-03-06T04:26:47;7.78;;;3.10;;
23490;SDS011;14683;50.038;8.078;2024-03-06T04:29:48;3.38;;;2.70;;
23490;SDS011;14683;50.038;8.078;2024-03-06T04:32:50;6.15;;;2.58;;
23490;SDS011;14683;50.038;8.078;2024-03-06T04:35:51;3.05;;;2.75;;
23490;SDS011;14683;50.038;8.078;2024-03-06T04:38:53;3.53;;;3.00;;
23490;SDS011;14683;50.038;8.078;2024-03-06T04:41:54;3.00;;;2.70;;
23490;SDS011;14683;50.038;8.078;2024-03-06T04:44:55;3.15;;;2.85;;
23490;SDS011;14683;50.038;8.078;2024-03-06T04:47:57;4.35;;;3.03;;
23490;SDS011;14683;50.038;8.078;2024-03-06T04:50:59;3.20;;;2.95;;
23490;SDS011;14683;50.038;8.078;2024-03-06T04:54:00;4.35;;;3.10;;
23490;SDS011;14683;50.038;8.078;2024-03-06T04:57:01;5.07;;;3.22;;
23490;SDS011;14683;50.038;8.078;2024-03-06T05:00:03;2.85;;;2.65;;
23490;SDS011;14683;50.038;8.078;2024-03-06T05:03:09;3.25;;;2.80;;
23490;SDS011;14683;50.038;8.078;2024-03-06T05:06:10;3.35;;;2.70;;
23490;SDS011;14683;50.038;8.078;2024-03-06T05:09:11;3.70;;;3.40;;
23490;SDS011;14683;50.038;8.078;2024-03-06T05:12:13;4.28;;;2.88;;
23490;SDS011;14683;50.038;8.078;2024-03-06T05:15:15;3.33;;;2.78;;
23490;SDS011;14683;50.038;8.078;2024-03-06T05:18:16;4.53;;;2.90;;
23490;SDS011;14683;50.038;8.078;2024-03-06T05:21:17;3.50;;;3.10;;
23490;SDS011;14683;50.038;8.078;2024-03-06T05:24:19;4.82;;;2.70;;
23490;SDS011;14683;50.038;8.078;2024-03-06T05:27:20;3.65;;;3.20;;
23490;SDS011;14683;50.038;8.078;2024-03-06T05:30:22;3.65;;;3.05;;
23490;SDS011;14683;50.038;8.078;2024-03-06T05:33:23;4.18;;;3.00;;
23490;SDS011;14683;50.038;8.078;2024-03-06T05:36:24;7.72;;;3.03;;
23490;SDS011;14683;50.038;8.078;2024-03-06T05:39:25;2.88;;;2.60;;
23490;SDS011;14683;50.038;8.078;2024-03-06T05:42:26;3.90;;;2.92;;
23490;SDS011;14683;50.038;8.078;2024-03-06T05:45:27;3.15;;;2.80;;
23490;SDS011;14683;50.038;8.078;2024-03-06T05:48:29;4.38;;;3.42;;
23490;SDS011;14683;50.038;8.078;2024-03-06T05:51:30;4.43;;;3.20;;
23490;SDS011;14683;50.038;8.078;2024-03-06T05:54:31;3.70;;;2.97;;
23490;SDS011;14683;50.038;8.078;2024-03-06T05:57:34;5.18;;;3.30;;
23490;SDS011;14683;50.038;8.078;2024-03-06T06:00:35;4.25;;;3.85;;
23490;SDS011;14683;50.038;8.078;2024-03-06T06:03:36;5.07;;;3.50;;
23490;SDS011;14683;50.038;8.078;2024-03-06T06:06:39;4.40;;;3.90;;
23490;SDS011;14683;50.038;8.078;2024-03-06T06:09:40;5.07;;;3.28;;
23490;SDS011;14683;50.038;8.078;2024-03-06T06:12:41;3.92;;;3.50;;
23490;SDS011;14683;50.038;8.078;2024-03-06T06:15:42;3.92;;;3.28;;
23490;SDS011;14683;50.038;8.078;2024-03-06T06:18:43;3.95;;;3.10;;
23490;SDS011;14683;50.038;8.078;2024-03-06T06:21:45;4.50;;;3.10;;
23490;SDS011;14683;50.038;8.078;2024-03-06T06:24:48;4.47;;;2.83;;
23490;SDS011;14683;50.038;8.078;2024-03-06T06:27:49;4.15;;;3.10;;
23490;SDS011;14683;50.038;8.078;2024-03-06T06:30:50;4.75;;;3.42;;
23490;SDS011;14683;50.038;8.078;2024-03-06T06:33:53;3.53;;;3.20;;
23490;SDS011;14683;50.038;8.078;2024-03-06T06:36:54;3.42;;;3.15;;
23490;SDS011;14683;50.038;8.078;2024-03-06T06:39:55;3.58;;;3.17;;
23490;SDS011;14683;50.038;8.078;2024-03-06T06:42:56;4.57;;;3.90;;
23490;SDS011;14683;50.038;8.078;2024-03-06T06:45:57;5.78;;;3.55;;
23490;SDS011;14683;50.038;8.078;2024-03-06T06:48:59;4.80;;;3.90;;
23490;SDS011;14683;50.038;8.078;2024-03-06T06:52:00;3.72;;;3.30;;
23490;SDS011;14683;50.038;8.078;2024-03-06T06:55:02;4.47;;;3.20;;
23490;SDS011;14683;50.038;8.078;2024-03-06T06:58:03;3.97;;;3.55;;
23490;SDS011;14683;50.038;8.078;2024-03-06T07:01:04;5.90;;;3.22;;
23490;SDS011;14683;50.038;8.078;2024-03-06T07:04:05;4.72;;;3.55;;
23490;SDS011;14683;50.038;8.078;2024-03-06T07:07:07;5.10;;;3.42;;
23490;SDS011;14683;50.038;8.078;2024-03-06T07:10:08;4.35;;;3.45;;
23490;SDS011;14683;50.038;8.078;2024-03-06T07:13:09;6.10;;;3.70;;
23490;SDS011;14683;50.038;8.078;2024-03-06T07:16:11;4.72;;;4.10;;
23490;SDS011;14683;50.038;8.078;2024-03-06T07:19:12;6.10;;;3.95;;
23490;SDS011;14683;50.038;8.078;2024-03-06T07:22:13;5.05;;;3.35;;
23490;SDS011;14683;50.038;8.078;2024-03-06T07:25:15;4.20;;;3.20;;
23490;SDS011;14683;50.038;8.078;2024-03-06T07:28:16;4.93;;;3.72;;
23490;SDS011;14683;50.038;8.078;2024-03-06T07:31:18;4.93;;;3.47;;
23490;SDS011;14683;50.038;8.078;2024-03-06T07:34:19;3.90;;;3.50;;
23490;SDS011;14683;50.038;8.078;2024-03-06T07:37:24;4.25;;;3.58;;
23490;SDS011;14683;50.038;8.078;2024-03-06T07:40:25;6.55;;;3.42;;
23490;SDS011;14683;50.038;8.078;2024-03-06T07:43:26;4.05;;;3.08;;
23490;SDS011;14683;50.038;8.078;2024-03-06T07:46:27;5.60;;;3.13;;
23490;SDS011;14683;50.038;8.078;2024-03-06T07:49:28;3.65;;;3.20;;
23490;SDS011;14683;50.038;8.078;2024-03-06T07:52:29;3.20;;;2.90;;
23490;SDS011;14683;50.038;8.078;2024-03-06T07:55:30;3.83;;;2.83;;
23490;SDS011;14683;50.038;8.078;2024-03-06T07:58:31;5.43;;;3.40;;
23490;SDS011;14683;50.038;8.078;2024-03-06T08:01:33;4.65;;;3.10;;
23490;SDS011;14683;50.038;8.078;2024-03-06T08:04:35;3.65;;;2.90;;
23490;SDS011;14683;50.038;8.078;2024-03-06T08:07:36;4.32;;;3.30;;
23490;SDS011;14683;50.038;8.078;2024-03-06T08:10:37;3.33;;;2.90;;
23490;SDS011;14683;50.038;8.078;2024-03-06T08:13:38;3.75;;;3.30;;
23490;SDS011;14683;50.038;8.078;2024-03-06T08:16:40;5.05;;;3.45;;
23490;SDS011;14683;50.038;8.078;2024-03-06T08:19:41;3.92;;;3.00;;
23490;SDS011;14683;50.038;8.078;2024-03-06T08:22:42;3.88;;;2.85;;
23490;SDS011;14683;50.038;8.078;2024-03-06T08:25:43;3.10;;;2.80;;
23490;SDS011;14683;50.038;8.078;2024-03-06T08:28:45;4.03;;;2.80;;
23490;SDS011;14683;50.038;8.078;2024-03-06T08:31:47;6.35;;;3.33;;
23490;SDS011;14683;50.038;8.078;2024-03-06T08:34:48;4.65;;;3.20;;
23490;SDS011;14683;50.038;8.078;2024-03-06T08:37:50;5.50;;;3.47;;
23490;SDS011;14683;50.038;8.078;2024-03-06T08:40:54;4.82;;;2.90;;
23490;SDS011;14683;50.038;8.078;2024-03-06T08:43:55;3.88;;;2.90;;
23490;SDS011;14683;50.038;8.078;2024-03-06T08:46:56;4.57;;;3.22;;
23490;SDS011;14683;50.038;8.078;2024-03-06T08:49:57;3.25;;;2.92;;
23490;SDS011;14683;50.038;8.078;2024-03-06T08:52:58;4.50;;;2.95;;
23490;SDS011;14683;50.038;8.078;2024-03-06T08:55:59;3.33;;;2.75;;
23490;SDS011;14683;50.038;8.078;2024-03-06T08:59:01;6.50;;;2.95;;
23490;SDS011;14683;50.038;8.078;2024-03-06T09:02:13;4.82;;;2.72;;
23490;SDS011;14683;50.038;8.078;2024-03-06T09:05:18;3.45;;;3.08;;
23490;SDS011;14683;50.038;8.078;2024-03-06T09:08:19;4.63;;;3.10;;
23490;SDS011;14683;50.038;8.078;2024-03-06T09:11:20;4.15;;;2.90;;
23490;SDS011;14683;50.038;8.078;2024-03-06T09:14:23;4.38;;;3.30;;
23490;SDS011;14683;50.038;8.078;2024-03-06T09:17:24;3.50;;;3.05;;
23490;SDS011;14683;50.038;8.078;2024-03-06T09:20:25;4.65;;;3.40;;
23490;SDS011;14683;50.038;8.078;2024-03-06T09:23:26;6.35;;;3.90;;
23490;SDS011;14683;50.038;8.078;2024-03-06T09:26:28;7.82;;;4.28;;
23490;SDS011;14683;50.038;8.078;2024-03-06T09:29:29;3.67;;;2.40;;
23490;SDS011;14683;50.038;8.078;2024-03-06T09:32:30;5.70;;;3.92;;
23490;SDS011;14683;50.038;8.078;2024-03-06T09:35:31;7.65;;;4.57;;
23490;SDS011;14683;50.038;8.078;2024-03-06T09:38:33;5.97;;;4.13;;
23490;SDS011;14683;50.038;8.078;2024-03-06T09:41:34;7.07;;;4.30;;
23490;SDS011;14683;50.038;8.078;2024-03-06T09:44:36;5.47;;;4.10;;
23490;SDS011;14683;50.038;8.078;2024-03-06T09:47:37;5.05;;;4.30;;
23490;SDS011;14683;50.038;8.078;2024-03-06T09:50:40;5.43;;;4.53;;
23490;SDS011;14683;50.038;8.078;2024-03-06T09:53:45;5.28;;;4.10;;
23490;SDS011;14683;50.038;8.078;2024-03-06T09:56:50;5.13;;;4.60;;
23490;SDS011;14683;50.038;8.078;2024-03-06T09:59:51;6.88;;;5.18;;
23490;SDS011;14683;50.038;8.078;2024-03-06T10:03:02;8.88;;;5.32;;
23490;SDS011;14683;50.038;8.078;2024-03-06T10:06:06;9.20;;;5.75;;
23490;SDS011;14683;50.038;8.078;2024-03-06T10:09:08;12.25;;;7.93;;
23490;SDS011;14683;50.038;8.078;2024-03-06T10:12:12;15.05;;;7.57;;
23490;SDS011;14683;50.038;8.078;2024-03-06T10:15:13;9.93;;;7.07;;
23490;SDS011;14683;50.038;8.078;2024-03-06T10:18:15;8.88;;;5.93;;
23490;SDS011;14683;50.038;8.078;2024-03-06T10:21:25;10.48;;;7.10;;
23490;SDS011;14683;50.038;8.078;2024-03-06T10:24:32;12.57;;;7.53;;
23490;SDS011;14683;50.038;8.078;2024-03-06T10:27:34;9.20;;;6.68;;
23490;SDS011;14683;50.038;8.078;2024-03-06T10:30:36;10.60;;;6.90;;
23490;SDS011;14683;50.038;8.078;2024-03-06T10:33:38;9.57;;;7.20;;
23490;SDS011;14683;50.038;8.078;2024-03-06T10:36:39;9.73;;;6.60;;
23490;SDS011;14683;50.038;8.078;2024-03-06T10:39:42;8.90;;;6.60;;
23490;SDS011;14683;50.038;8.078;2024-03-06T10:42:44;13.38;;;7.90;;
23490;SDS011;14683;50.038;8.078;2024-03-06T10:48:47;8.60;;;7.55;;
23490;SDS011;14683;50.038;8.078;2024-03-06T10:51:50;10.10;;;7.60;;
23490;SDS011;14683;50.038;8.078;2024-03-06T10:54:52;10.25;;;7.57;;
23490;SDS011;14683;50.038;8.078;2024-03-06T10:57:54;10.93;;;7.85;;
23490;SDS011;14683;50.038;8.078;2024-03-06T11:00:57;9.70;;;6.95;;
23490;SDS011;14683;50.038;8.078;2024-03-06T11:04:01;9.43;;;6.82;;
23490;SDS011;14683;50.038;8.078;2024-03-06T11:07:04;10.07;;;7.18;;
23490;SDS011;14683;50.038;8.078;2024-03-06T11:10:05;9.23;;;6.93;;
23490;SDS011;14683;50.038;8.078;2024-03-06T11:16:18;11.02;;;6.88;;
23490;SDS011;14683;50.038;8.078;2024-03-06T11:19:19;10.57;;;7.13;;
23490;SDS011;14683;50.038;8.078;2024-03-06T11:23:01;11.02;;;7.53;;
23490;SDS011;14683;50.038;8.078;2024-03-06T11:26:03;8.32;;;6.60;;
23490;SDS011;14683;50.038;8.078;2024-03-06T11:29:06;10.07;;;7.13;;
23490;SDS011;14683;50.038;8.078;2024-03-06T11:32:08;9.70;;;7.25;;
23490;SDS011;14683;50.038;8.078;2024-03-06T11:35:11;10.93;;;8.02;;
23490;SDS011;14683;50.038;8.078;2024-03-06T11:38:16;10.15;;;7.43;;
23490;SDS011;14683;50.038;8.078;2024-03-06T11:41:18;10.35;;;7.63;;
23490;SDS011;14683;50.038;8.078;2024-03-06T11:44:20;9.18;;;7.25;;
23490;SDS011;14683;50.038;8.078;2024-03-06T11:47:25;11.13;;;7.88;;
23490;SDS011;14683;50.038;8.078;2024-03-06T11:50:26;8.65;;;6.93;;
23490;SDS011;14683;50.038;8.078;2024-03-06T11:53:34;9.32;;;7.15;;
23490;SDS011;14683;50.038;8.078;2024-03-06T11:56:38;13.23;;;8.02;;
23490;SDS011;14683;50.038;8.078;2024-03-06T11:59:40;10.15;;;7.05;;
23490;SDS011;14683;50.038;8.078;2024-03-06T12:02:42;10.30;;;7.97;;
23490;SDS011;14683;50.038;8.078;2024-03-06T12:05:44;10.13;;;7.88;;
23490;SDS011;14683;50.038;8.078;2024-03-06T12:08:47;10.98;;;7.55;;
23490;SDS011;14683;50.038;8.078;2024-03-06T12:11:48;6.95;;;5.10;;
23490;SDS011;14683;50.038;8.078;2024-03-06T12:14:56;7.57;;;6.00;;
23490;SDS011;14683;50.038;8.078;2024-03-06T12:17:59;8.00;;;5.93;;
23490;SDS011;14683;50.038;8.078;2024-03-06T12:21:01;6.22;;;5.13;;
23490;SDS011;14683;50.038;8.078;2024-03-06T12:24:07;5.10;;;4.35;;
23490;SDS011;14683;50.038;8.078;2024-03-06T12:27:09;3.97;;;3.55;;
23490;SDS011;14683;50.038;8.078;2024-03-06T12:30:10;6.20;;;4.97;;
23490;SDS011;14683;50.038;8.078;2024-03-06T12:33:16;5.57;;;4.75;;
23490;SDS011;14683;50.038;8.078;2024-03-06T12:36:17;5.60;;;4.20;;
23490;SDS011;14683;50.038;8.078;2024-03-06T12:39:26;3.67;;;3.28;;
23490;SDS011;14683;50.038;8.078;2024-03-06T12:42:28;5.72;;;4.25;;
23490;SDS011;14683;50.038;8.078;2024-03-06T12:45:29;5.20;;;3.97;;
23490;SDS011;14683;50.038;8.078;2024-03-06T12:48:30;3.92;;;3.45;;
23490;SDS011;14683;50.038;8.078;2024-03-06T12:51:31;5.50;;;4.15;;
23490;SDS011;14683;50.038;8.078;2024-03-06T12:54:33;5.20;;;3.92;;
23490;SDS011;14683;50.038;8.078;2024-03-06T12:57:34;4.93;;;3.90;;
23490;SDS011;14683;50.038;8.078;2024-03-06T13:00:35;4.82;;;3.83;;
23490;SDS011;14683;50.038;8.078;2024-03-06T13:03:37;4.25;;;3.50;;
23490;SDS011;14683;50.038;8.078;2024-03-06T13:06:39;7.38;;;4.53;;
23490;SDS011;14683;50.038;8.078;2024-03-06T13:09:43;3.83;;;3.50;;
23490;SDS011;14683;50.038;8.078;2024-03-06T13:12:44;4.95;;;4.40;;
23490;SDS011;14683;50.038;8.078;2024-03-06T13:15:45;9.18;;;4.82;;
23490;SDS011;14683;50.038;8.078;2024-03-06T13:18:49;5.38;;;4.00;;
23490;SDS011;14683;50.038;8.078;2024-03-06T13:21:54;7.93;;;3.95;;
23490;SDS011;14683;50.038;8.078;2024-03-06T13:24:55;6.25;;;4.95;;
23490;SDS011;14683;50.038;8.078;2024-03-06T13:27:57;6.22;;;4.50;;
23490;SDS011;14683;50.038;8.078;2024-03-06T13:30:59;4.80;;;4.25;;
23490;SDS011;14683;50.038;8.078;2024-03-06T13:34:01;6.68;;;4.38;;
23490;SDS011;14683;50.038;8.078;2024-03-06T13:37:04;6.53;;;4.10;;
23490;SDS011;14683;50.038;8.078;2024-03-06T13:40:08;6.38;;;3.92;;
23490;SDS011;14683;50.038;8.078;2024-03-06T13:43:11;6.85;;;4.55;;
23490;SDS011;14683;50.038;8.078;2024-03-06T13:46:12;10.38;;;7.22;;
23490;SDS011;14683;50.038;8.078;2024-03-06T13:49:33;13.13;;;7.35;;
23490;SDS011;14683;50.038;8.078;2024-03-06T13:52:35;10.35;;;7.70;;
23490;SDS011;14683;50.038;8.078;2024-03-06T13:55:36;10.18;;;8.25;;
23490;SDS011;14683;50.038;8.078;2024-03-06T13:58:37;13.73;;;8.32;;
23490;SDS011;14683;50.038;8.078;2024-03-06T14:01:39;11.50;;;8.63;;
23490;SDS011;14683;50.038;8.078;2024-03-06T14:04:41;10.75;;;7.90;;
23490;SDS011;14683;50.038;8.078;2024-03-06T14:07:42;8.80;;;6.63;;
23490;SDS011;14683;50.038;8.078;2024-03-06T14:10:43;8.48;;;5.85;;
23490;SDS011;14683;50.038;8.078;2024-03-06T14:13:46;7.03;;;5.40;;
23490;SDS011;14683;50.038;8.078;2024-03-06T14:16:47;6.55;;;4.78;;
23490;SDS011;14683;50.038;8.078;2024-03-06T14:19:48;5.43;;;4.45;;
23490;SDS011;14683;50.038;8.078;2024-03-06T14:22:49;5.57;;;4.95;;
23490;SDS011;14683;50.038;8.078;2024-03-06T14:25:51;6.75;;;4.43;;
23490;SDS011;14683;50.038;8.078;2024-03-06T14:28:52;6.05;;;4.50;;
23490;SDS011;14683;50.038;8.078;2024-03-06T14:31:53;5.80;;;4.70;;
23490;SDS011;14683;50.038;8.078;2024-03-06T14:34:55;5.55;;;4.82;;
23490;SDS011;14683;50.038;8.078;2024-03-06T14:37:56;7.75;;;5.63;;
23490;SDS011;14683;50.038;8.078;2024-03-06T14:40:57;7.78;;;5.38;;
23490;SDS011;14683;50.038;8.078;2024-03-06T14:43:58;7.45;;;5.82;;
23490;SDS011;14683;50.038;8.078;2024-03-06T14:46:59;6.88;;;5.20;;
23490;SDS011;14683;50.038;8.078;2024-03-06T14:50:00;7.70;;;5.78;;
23490;SDS011;14683;50.038;8.078;2024-03-06T14:53:01;9.00;;;5.40;;
23490;SDS011;14683;50.038;8.078;2024-03-06T14:56:03;8.98;;;5.80;;
23490;SDS011;14683;50.038;8.078;2024-03-06T14:59:04;9.77;;;7.15;;
23490;SDS011;14683;50.038;8.078;2024-03-06T15:02:05;7.25;;;6.25;;
23490;SDS011;14683;50.038;8.078;2024-03-06T15:05:07;8.07;;;6.75;;
23490;SDS011;14683;50.038;8.078;2024-03-06T15:08:08;9.20;;;6.88;;
23490;SDS011;14683;50.038;8.078;2024-03-06T15:11:09;9.75;;;6.93;;
23490;SDS011;14683;50.038;8.078;2024-03-06T15:14:10;9.27;;;6.75;;
23490;SDS011;14683;50.038;8.078;2024-03-06T15:17:11;9.77;;;6.70;;
23490;SDS011;14683;50.038;8.078;2024-03-06T15:20:12;11.75;;;7.93;;
23490;SDS011;14683;50.038;8.078;2024-03-06T15:23:13;9.73;;;7.07;;
23490;SDS011;14683;50.038;8.078;2024-03-06T15:26:16;8.82;;;6.55;;
23490;SDS011;14683;50.038;8.078;2024-03-06T15:29:17;11.63;;;7.43;;
23490;SDS011;14683;50.038;8.078;2024-03-06T15:32:18;8.90;;;7.50;;
23490;SDS011;14683;50.038;8.078;2024-03-06T15:35:19;9.68;;;7.68;;
23490;SDS011;14683;50.038;8.078;2024-03-06T15:38:20;11.88;;;7.80;;
23490;SDS011;14683;50.038;8.078;2024-03-06T15:41:21;10.15;;;7.95;;
23490;SDS011;14683;50.038;8.078;2024-03-06T15:44:22;9.95;;;7.18;;
23490;SDS011;14683;50.038;8.078;2024-03-06T15:47:24;9.07;;;7.38;;
23490;SDS011;14683;50.038;8.078;2024-03-06T15:50:25;9.13;;;7.30;;
23490;SDS011;14683;50.038;8.078;2024-03-06T15:53:26;11.05;;;7.38;;
23490;SDS011;14683;50.038;8.078;2024-03-06T15:56:30;10.18;;;7.50;;
23490;SDS011;14683;50.038;8.078;2024-03-06T15:59:33;11.02;;;8.38;;
23490;SDS011;14683;50.038;8.078;2024-03-06T16:02:37;9.25;;;7.60;;
23490;SDS011;14683;50.038;8.078;2024-03-06T16:05:39;11.88;;;7.97;;
23490;SDS011;14683;50.038;8.078;2024-03-06T16:08:40;10.35;;;7.15;;
23490;SDS011;14683;50.038;8.078;2024-03-06T16:11:42;12.15;;;7.93;;
23490;SDS011;14683;50.038;8.078;2024-03-06T16:14:43;10.13;;;7.65;;
23490;SDS011;14683;50.038;8.078;2024-03-06T16:17:44;9.45;;;7.13;;
23490;SDS011;14683;50.038;8.078;2024-03-06T16:20:46;8.95;;;7.03;;
23490;SDS011;14683;50.038;8.078;2024-03-06T16:23:47;8.95;;;7.45;;
23490;SDS011;14683;50.038;8.078;2024-03-06T16:26:49;9.93;;;7.50;;
23490;SDS011;14683;50.038;8.078;2024-03-06T16:29:50;11.07;;;8.10;;
23490;SDS011;14683;50.038;8.078;2024-03-06T16:32:51;11.15;;;8.90;;
23490;SDS011;14683;50.038;8.078;2024-03-06T16:35:53;10.27;;;8.38;;
23490;SDS011;14683;50.038;8.078;2024-03-06T16:38:54;9.85;;;8.13;;
23490;SDS011;14683;50.038;8.078;2024-03-06T16:41:55;13.35;;;9.43;;
23490;SDS011;14683;50.038;8.078;2024-03-06T16:44:56;12.93;;;9.07;;
23490;SDS011;14683;50.038;8.078;2024-03-06T16:47:57;11.20;;;8.63;;
23490;SDS011;14683;50.038;8.078;2024-03-06T16:51:00;9.98;;;8.13;;
23490;SDS011;14683;50.038;8.078;2024-03-06T16:54:01;11.45;;;8.25;;
23490;SDS011;14683;50.038;8.078;2024-03-06T16:57:03;12.00;;;8.25;;
23490;SDS011;14683;50.038;8.078;2024-03-06T17:00:05;13.85;;;9.02;;
23490;SDS011;14683;50.038;8.078;2024-03-06T17:03:07;10.95;;;8.75;;
23490;SDS011;14683;50.038;8.078;2024-03-06T17:06:08;10.75;;;8.80;;
23490;SDS011;14683;50.038;8.078;2024-03-06T17:09:09;12.68;;;9.00;;
23490;SDS011;14683;50.038;8.078;2024-03-06T17:12:12;10.18;;;8.15;;
23490;SDS011;14683;50.038;8.078;2024-03-06T17:15:13;11.85;;;8.55;;
23490;SDS011;14683;50.038;8.078;2024-03-06T17:18:14;10.55;;;8.15;;
23490;SDS011;14683;50.038;8.078;2024-03-06T17:21:15;10.40;;;8.15;;
23490;SDS011;14683;50.038;8.078;2024-03-06T17:24:16;10.93;;;8.70;;
23490;SDS011;14683;50.038;8.078;2024-03-06T17:27:18;12.15;;;10.77;;
23490;SDS011;14683;50.038;8.078;2024-03-06T17:30:19;22.60;;;17.90;;
23490;SDS011;14683;50.038;8.078;2024-03-06T17:33:20;31.33;;;23.10;;
23490;SDS011;14683;50.038;8.078;2024-03-06T17:36:22;33.65;;;25.35;;
23490;SDS011;14683;50.038;8.078;2024-03-06T17:39:23;31.73;;;22.40;;
23490;SDS011;14683;50.038;8.078;2024-03-06T17:42:26;19.02;;;16.50;;
23490;SDS011;14683;50.038;8.078;2024-03-06T17:45:27;16.30;;;13.13;;
23490;SDS011;14683;50.038;8.078;2024-03-06T17:48:29;17.25;;;13.95;;
23490;SDS011;14683;50.038;8.078;2024-03-06T17:51:30;14.85;;;11.77;;
23490;SDS011;14683;50.038;8.078;2024-03-06T17:54:32;16.20;;;13.43;;
23490;SDS011;14683;50.038;8.078;2024-03-06T17:57:35;15.30;;;11.88;;
23490;SDS011;14683;50.038;8.078;2024-03-06T18:00:36;17.42;;;12.75;;
23490;SDS011;14683;50.038;8.078;2024-03-06T18:03:39;25.27;;;16.65;;
23490;SDS011;14683;50.038;8.078;2024-03-06T18:06:42;32.10;;;20.88;;
23490;SDS011;14683;50.038;8.078;2024-03-06T18:09:43;27.90;;;17.73;;
23490;SDS011;14683;50.038;8.078;2024-03-06T18:12:44;24.95;;;17.05;;
23490;SDS011;14683;50.038;8.078;2024-03-06T18:15:45;28.90;;;18.65;;
23490;SDS011;14683;50.038;8.078;2024-03-06T18:18:47;30.02;;;18.85;;
23490;SDS011;14683;50.038;8.078;2024-03-06T18:21:48;27.27;;;18.38;;
23490;SDS011;14683;50.038;8.078;2024-03-06T18:24:49;39.35;;;24.27;;
23490;SDS011;14683;50.038;8.078;2024-03-06T18:27:54;40.42;;;25.83;;
23490;SDS011;14683;50.038;8.078;2024-03-06T18:30:56;33.88;;;21.42;;
23490;SDS011;14683;50.038;8.078;2024-03-06T18:33:57;37.15;;;23.67;;
23490;SDS011;14683;50.038;8.078;2024-03-06T18:36:58;33.03;;;22.58;;
23490;SDS011;14683;50.038;8.078;2024-03-06T18:40:00;32.65;;;22.23;;
23490;SDS011;14683;50.038;8.078;2024-03-06T18:43:02;34.83;;;24.77;;
23490;SDS011;14683;50.038;8.078;2024-03-06T18:46:04;28.35;;;19.90;;
23490;SDS011;14683;50.038;8.078;2024-03-06T18:49:05;26.73;;;17.92;;
23490;SDS011;14683;50.038;8.078;2024-03-06T18:52:10;25.58;;;16.77;;
23490;SDS011;14683;50.038;8.078;2024-03-06T18:55:11;30.35;;;19.60;;
23490;SDS011;14683;50.038;8.078;2024-03-06T18:58:12;34.22;;;22.65;;
23490;SDS011;14683;50.038;8.078;2024-03-06T19:01:13;40.70;;;26.80;;
23490;SDS011;14683;50.038;8.078;2024-03-06T19:04:15;33.30;;;22.75;;
23490;SDS011;14683;50.038;8.078;2024-03-06T19:07:21;35.72;;;23.67;;
23490;SDS011;14683;50.038;8.078;2024-03-06T19:10:22;43.20;;;26.27;;
23490;SDS011;14683;50.038;8.078;2024-03-06T19:13:24;32.60;;;22.65;;
23490;SDS011;14683;50.038;8.078;2024-03-06T19:16:25;35.13;;;23.48;;
23490;SDS011;14683;50.038;8.078;2024-03-06T19:19:26;24.27;;;16.42;;
23490;SDS011;14683;50.038;8.078;2024-03-06T19:22:28;25.13;;;15.75;;
23490;SDS011;14683;50.038;8.078;2024-03-06T19:25:29;26.10;;;16.90;;
23490;SDS011;14683;50.038;8.078;2024-03-06T19:28:30;27.73;;;18.83;;
23490;SDS011;14683;50.038;8.078;2024-03-06T19:31:31;28.15;;;17.55;;
23490;SDS011;14683;50.038;8.078;2024-03-06T19:34:32;29.48;;;19.38;;
23490;SDS011;14683;50.038;8.078;2024-03-06T19:37:34;31.17;;;21.00;;
23490;SDS011;14683;50.038;8.078;2024-03-06T19:40:35;35.72;;;21.25;;
23490;SDS011;14683;50.038;8.078;2024-03-06T19:43:37;35.28;;;21.60;;
23490;SDS011;14683;50.038;8.078;2024-03-06T19:46:38;43.20;;;26.52;;
23490;SDS011;14683;50.038;8.078;2024-03-06T19:49:40;29.13;;;19.55;;
23490;SDS011;14683;50.038;8.078;2024-03-06T19:52:42;30.85;;;21.20;;
23490;SDS011;14683;50.038;8.078;2024-03-06T19:55:47;31.33;;;20.40;;
23490;SDS011;14683;50.038;8.078;2024-03-06T19:58:49;30.85;;;20.85;;
23490;SDS011;14683;50.038;8.078;2024-03-06T20:01:50;37.15;;;22.85;;
23490;SDS011;14683;50.038;8.078;2024-03-06T20:04:52;33.78;;;22.85;;
23490;SDS011;14683;50.038;8.078;2024-03-06T20:07:53;34.72;;;23.52;;
23490;SDS011;14683;50.038;8.078;2024-03-06T20:10:55;37.22;;;23.25;;
23490;SDS011;14683;50.038;8.078;2024-03-06T20:13:56;32.08;;;21.88;;
23490;SDS011;14683;50.038;8.078;2024-03-06T20:17:04;29.13;;;20.88;;
23490;SDS011;14683;50.038;8.078;2024-03-06T20:20:05;34.47;;;22.90;;
23490;SDS011;14683;50.038;8.078;2024-03-06T20:23:11;41.42;;;30.05;;
23490;SDS011;14683;50.038;8.078;2024-03-06T20:26:13;33.55;;;23.45;;
23490;SDS011;14683;50.038;8.078;2024-03-06T20:29:14;30.85;;;20.67;;
23490;SDS011;14683;50.038;8.078;2024-03-06T20:32:15;30.15;;;22.30;;
23490;SDS011;14683;50.038;8.078;2024-03-06T20:35:17;28.77;;;19.90;;
23490;SDS011;14683;50.038;8.078;2024-03-06T20:38:21;29.98;;;20.08;;
23490;SDS011;14683;50.038;8.078;2024-03-06T20:41:22;29.67;;;20.88;;
23490;SDS011;14683;50.038;8.078;2024-03-06T20:44:24;32.80;;;20.00;;
23490;SDS011;14683;50.038;8.078;2024-03-06T20:47:26;29.63;;;20.13;;
